SAST/TTG METAR and TAF weather

Enter ICAO airport designator
Station Type Date Time Source
SAST METAR 2019/01/29 10:00 UTC NOAA

SAST 291000Z 00000KT CAVOK 24/22 Q1010


Station Type Date Time Source
SAST Decoded METAR 2019/01/29 10:00 UTC NOAA

Tartagal Aerodrome, Argentina (SAST) 22-39S 063-49W 450M
Jan 29, 2019 - 05:00 AM EST / 2019.01.29 1000 UTC
Wind: Calm:0
Visibility: greater than 7 mile(s):0
Temperature: 75 F (24 C)
Dew Point: 71 F (22 C)
Relative Humidity: 88%
Pressure (altimeter): 29.83 in. Hg (1010 hPa)
ob: SAST 291000Z 00000KT CAVOK 24/22 Q1010
cycle: 10

Station Type Date Time Source
SAST TAF UTC NOAA

Error!


Example: see airport list